sensor_id;sensor_type;location;lat;lon;timestamp;temperature;humidity
21662;DHT22;10992;48.170;8.596;2023-02-28T00:00:38;-3.40;99.90
21662;DHT22;10992;48.170;8.596;2023-02-28T00:03:05;-3.40;99.90
21662;DHT22;10992;48.170;8.596;2023-02-28T00:05:33;-3.50;99.90
21662;DHT22;10992;48.170;8.596;2023-02-28T00:08:00;-3.40;99.90
21662;DHT22;10992;48.170;8.596;2023-02-28T00:10:29;-3.40;99.90
21662;DHT22;10992;48.170;8.596;2023-02-28T00:13:04;-3.40;99.90
21662;DHT22;10992;48.170;8.596;2023-02-28T00:15:32;-3.40;99.90
21662;DHT22;10992;48.170;8.596;2023-02-28T00:17:59;-3.40;99.90
21662;DHT22;10992;48.170;8.596;2023-02-28T00:20:26;-3.30;99.90
21662;DHT22;10992;48.170;8.596;2023-02-28T00:22:54;-3.30;99.90
21662;DHT22;10992;48.170;8.596;2023-02-28T00:25:23;-3.30;99.90
21662;DHT22;10992;48.170;8.596;2023-02-28T00:27:51;-3.30;99.90
21662;DHT22;10992;48.170;8.596;2023-02-28T00:30:20;-3.40;99.90
21662;DHT22;10992;48.170;8.596;2023-02-28T00:32:48;-3.40;99.90
21662;DHT22;10992;48.170;8.596;2023-02-28T00:35:16;-3.40;99.90
21662;DHT22;10992;48.170;8.596;2023-02-28T00:37:44;-3.30;99.90
21662;DHT22;10992;48.170;8.596;2023-02-28T00:40:11;-3.30;99.90
21662;DHT22;10992;48.170;8.596;2023-02-28T00:42:39;-3.30;99.90
21662;DHT22;10992;48.170;8.596;2023-02-28T00:45:07;-3.30;99.90
21662;DHT22;10992;48.170;8.596;2023-02-28T00:47:37;-3.30;99.90
21662;DHT22;10992;48.170;8.596;2023-02-28T00:50:05;-3.30;99.90
21662;DHT22;10992;48.170;8.596;2023-02-28T00:52:32;-3.30;99.90
21662;DHT22;10992;48.170;8.596;2023-02-28T00:54:59;-3.30;99.90
21662;DHT22;10992;48.170;8.596;2023-02-28T00:57:26;-3.30;99.90
21662;DHT22;10992;48.170;8.596;2023-02-28T00:59:53;-3.30;99.90
21662;DHT22;10992;48.170;8.596;2023-02-28T01:02:22;-3.30;99.90
21662;DHT22;10992;48.170;8.596;2023-02-28T01:04:51;-3.30;99.90
21662;DHT22;10992;48.170;8.596;2023-02-28T01:07:19;-3.40;99.90
21662;DHT22;10992;48.170;8.596;2023-02-28T01:09:46;-3.40;99.90
21662;DHT22;10992;48.170;8.596;2023-02-28T01:12:13;-3.50;99.90
21662;DHT22;10992;48.170;8.596;2023-02-28T01:14:40;-3.50;99.90
21662;DHT22;10992;48.170;8.596;2023-02-28T01:17:08;-3.60;99.90
21662;DHT22;10992;48.170;8.596;2023-02-28T01:19:35;-3.60;99.90
21662;DHT22;10992;48.170;8.596;2023-02-28T01:22:03;-3.60;99.90
21662;DHT22;10992;48.170;8.596;2023-02-28T01:24:30;-3.70;99.90
21662;DHT22;10992;48.170;8.596;2023-02-28T01:27:00;-3.70;99.90
21662;DHT22;10992;48.170;8.596;2023-02-28T01:29:26;-3.70;99.90
21662;DHT22;10992;48.170;8.596;2023-02-28T01:31:53;-3.70;99.90
21662;DHT22;10992;48.170;8.596;2023-02-28T01:34:21;-3.70;99.90
21662;DHT22;10992;48.170;8.596;2023-02-28T01:36:47;-3.70;99.90
21662;DHT22;10992;48.170;8.596;2023-02-28T01:39:14;-3.70;99.90
21662;DHT22;10992;48.170;8.596;2023-02-28T01:41:42;-3.70;99.90
21662;DHT22;10992;48.170;8.596;2023-02-28T01:47:14;-3.80;99.90
21662;DHT22;10992;48.170;8.596;2023-02-28T01:49:41;-3.80;99.90
21662;DHT22;10992;48.170;8.596;2023-02-28T01:52:10;-3.80;99.90
21662;DHT22;10992;48.170;8.596;2023-02-28T01:54:41;-3.80;99.90
21662;DHT22;10992;48.170;8.596;2023-02-28T01:57:17;-3.90;99.90
21662;DHT22;10992;48.170;8.596;2023-02-28T02:00:05;-3.80;99.90
21662;DHT22;10992;48.170;8.596;2023-02-28T02:02:38;-3.80;99.90
21662;DHT22;10992;48.170;8.596;2023-02-28T02:05:07;-3.80;99.90
21662;DHT22;10992;48.170;8.596;2023-02-28T02:07:42;-3.90;99.90
21662;DHT22;10992;48.170;8.596;2023-02-28T02:10:33;-3.90;99.90
21662;DHT22;10992;48.170;8.596;2023-02-28T02:27:58;-3.90;99.90
21662;DHT22;10992;48.170;8.596;2023-02-28T02:33:42;-4.00;99.90
21662;DHT22;10992;48.170;8.596;2023-02-28T02:36:21;-4.10;99.90
21662;DHT22;10992;48.170;8.596;2023-02-28T02:39:12;-4.10;99.90
21662;DHT22;10992;48.170;8.596;2023-02-28T02:41:48;-4.10;99.90
21662;DHT22;10992;48.170;8.596;2023-02-28T02:44:33;-4.10;99.90
21662;DHT22;10992;48.170;8.596;2023-02-28T02:47:11;-4.10;99.90
21662;DHT22;10992;48.170;8.596;2023-02-28T02:49:43;-4.10;99.90
21662;DHT22;10992;48.170;8.596;2023-02-28T02:52:15;-4.10;99.90
21662;DHT22;10992;48.170;8.596;2023-02-28T02:54:45;-4.20;99.90
21662;DHT22;10992;48.170;8.596;2023-02-28T02:57:24;-4.20;99.90
21662;DHT22;10992;48.170;8.596;2023-02-28T02:59:54;-4.20;99.90
21662;DHT22;10992;48.170;8.596;2023-02-28T03:02:23;-4.20;99.90
21662;DHT22;10992;48.170;8.596;2023-02-28T03:04:59;-4.20;99.90
21662;DHT22;10992;48.170;8.596;2023-02-28T03:07:27;-4.20;99.90
21662;DHT22;10992;48.170;8.596;2023-02-28T03:09:56;-4.20;99.90
21662;DHT22;10992;48.170;8.596;2023-02-28T03:12:33;-4.20;99.90
21662;DHT22;10992;48.170;8.596;2023-02-28T03:15:15;-4.20;99.90
21662;DHT22;10992;48.170;8.596;2023-02-28T03:17:48;-4.20;99.90
21662;DHT22;10992;48.170;8.596;2023-02-28T03:23:10;-4.30;99.90
21662;DHT22;10992;48.170;8.596;2023-02-28T03:28:28;-4.30;99.90
21662;DHT22;10992;48.170;8.596;2023-02-28T03:31:08;-4.30;99.90
21662;DHT22;10992;48.170;8.596;2023-02-28T03:33:40;-4.30;99.90
21662;DHT22;10992;48.170;8.596;2023-02-28T03:36:18;-4.30;99.90
21662;DHT22;10992;48.170;8.596;2023-02-28T03:38:54;-4.20;99.90
21662;DHT22;10992;48.170;8.596;2023-02-28T03:41:32;-4.30;99.90
21662;DHT22;10992;48.170;8.596;2023-02-28T03:44:18;-4.30;99.90
21662;DHT22;10992;48.170;8.596;2023-02-28T03:46:59;-4.30;99.90
21662;DHT22;10992;48.170;8.596;2023-02-28T03:49:36;-4.40;99.90
21662;DHT22;10992;48.170;8.596;2023-02-28T03:52:09;-4.50;99.90
21662;DHT22;10992;48.170;8.596;2023-02-28T03:54:43;-4.40;99.90
21662;DHT22;10992;48.170;8.596;2023-02-28T03:57:26;-4.40;99.90
21662;DHT22;10992;48.170;8.596;2023-02-28T03:59:59;-4.40;99.90
21662;DHT22;10992;48.170;8.596;2023-02-28T04:02:27;-4.40;99.90
21662;DHT22;10992;48.170;8.596;2023-02-28T04:04:54;-4.40;99.90
21662;DHT22;10992;48.170;8.596;2023-02-28T04:07:21;-4.40;99.90
21662;DHT22;10992;48.170;8.596;2023-02-28T04:09:49;-4.50;99.90
21662;DHT22;10992;48.170;8.596;2023-02-28T04:12:16;-4.50;99.90
21662;DHT22;10992;48.170;8.596;2023-02-28T04:14:43;-4.50;99.90
21662;DHT22;10992;48.170;8.596;2023-02-28T04:17:10;-4.60;99.90
21662;DHT22;10992;48.170;8.596;2023-02-28T04:19:37;-4.60;99.90
21662;DHT22;10992;48.170;8.596;2023-02-28T04:22:04;-4.70;99.90
21662;DHT22;10992;48.170;8.596;2023-02-28T04:24:31;-4.60;99.90
21662;DHT22;10992;48.170;8.596;2023-02-28T04:26:58;-4.60;99.90
21662;DHT22;10992;48.170;8.596;2023-02-28T04:29:30;-4.60;99.90
21662;DHT22;10992;48.170;8.596;2023-02-28T04:31:59;-4.70;99.90
21662;DHT22;10992;48.170;8.596;2023-02-28T04:34:28;-4.70;99.90
21662;DHT22;10992;48.170;8.596;2023-02-28T04:36:56;-4.70;99.90
21662;DHT22;10992;48.170;8.596;2023-02-28T04:39:38;-4.70;99.90
21662;DHT22;10992;48.170;8.596;2023-02-28T04:42:05;-4.70;99.90
21662;DHT22;10992;48.170;8.596;2023-02-28T04:44:33;-4.70;99.90
21662;DHT22;10992;48.170;8.596;2023-02-28T04:46:59;-4.70;99.90
21662;DHT22;10992;48.170;8.596;2023-02-28T04:49:26;-4.70;99.90
21662;DHT22;10992;48.170;8.596;2023-02-28T04:51:53;-4.70;99.90
21662;DHT22;10992;48.170;8.596;2023-02-28T04:54:20;-4.80;99.90
21662;DHT22;10992;48.170;8.596;2023-02-28T04:56:47;-4.80;99.90
21662;DHT22;10992;48.170;8.596;2023-02-28T04:59:16;-4.80;99.90
21662;DHT22;10992;48.170;8.596;2023-02-28T05:01:48;-4.80;99.90
21662;DHT22;10992;48.170;8.596;2023-02-28T05:04:16;-4.80;99.90
21662;DHT22;10992;48.170;8.596;2023-02-28T05:06:43;-4.90;99.90
21662;DHT22;10992;48.170;8.596;2023-02-28T05:09:10;-4.80;99.90
21662;DHT22;10992;48.170;8.596;2023-02-28T05:11:41;-4.80;99.90
21662;DHT22;10992;48.170;8.596;2023-02-28T05:14:13;-4.80;99.90
21662;DHT22;10992;48.170;8.596;2023-02-28T05:16:40;-4.90;99.90
21662;DHT22;10992;48.170;8.596;2023-02-28T05:19:07;-4.90;99.90
21662;DHT22;10992;48.170;8.596;2023-02-28T05:21:39;-4.90;99.90
21662;DHT22;10992;48.170;8.596;2023-02-28T05:24:10;-4.90;99.90
21662;DHT22;10992;48.170;8.596;2023-02-28T05:26:40;-4.90;99.90
21662;DHT22;10992;48.170;8.596;2023-02-28T05:29:07;-4.90;99.90
21662;DHT22;10992;48.170;8.596;2023-02-28T05:31:35;-4.80;99.90
21662;DHT22;10992;48.170;8.596;2023-02-28T05:34:03;-4.80;99.90
21662;DHT22;10992;48.170;8.596;2023-02-28T05:36:33;-4.80;99.90
21662;DHT22;10992;48.170;8.596;2023-02-28T05:39:00;-4.80;99.90
21662;DHT22;10992;48.170;8.596;2023-02-28T05:41:27;-4.80;99.90
21662;DHT22;10992;48.170;8.596;2023-02-28T05:43:54;-4.80;99.90
21662;DHT22;10992;48.170;8.596;2023-02-28T05:46:21;-4.80;99.90
21662;DHT22;10992;48.170;8.596;2023-02-28T05:48:48;-4.80;99.90
21662;DHT22;10992;48.170;8.596;2023-02-28T05:51:16;-4.80;99.90
21662;DHT22;10992;48.170;8.596;2023-02-28T05:53:43;-4.80;99.90
21662;DHT22;10992;48.170;8.596;2023-02-28T05:56:10;-4.80;99.90
21662;DHT22;10992;48.170;8.596;2023-02-28T05:58:37;-4.70;99.90
21662;DHT22;10992;48.170;8.596;2023-02-28T06:03:48;-4.70;99.90
21662;DHT22;10992;48.170;8.596;2023-02-28T06:06:15;-4.70;99.90
21662;DHT22;10992;48.170;8.596;2023-02-28T06:08:42;-4.70;99.90
21662;DHT22;10992;48.170;8.596;2023-02-28T06:11:11;-4.70;99.90
21662;DHT22;10992;48.170;8.596;2023-02-28T06:13:38;-4.80;99.90
21662;DHT22;10992;48.170;8.596;2023-02-28T06:16:05;-4.80;99.90
21662;DHT22;10992;48.170;8.596;2023-02-28T06:18:32;-4.70;99.90
21662;DHT22;10992;48.170;8.596;2023-02-28T06:20:59;-4.70;99.90
21662;DHT22;10992;48.170;8.596;2023-02-28T06:23:26;-4.60;99.90
21662;DHT22;10992;48.170;8.596;2023-02-28T06:25:53;-4.70;99.90
21662;DHT22;10992;48.170;8.596;2023-02-28T06:28:25;-4.70;99.90
21662;DHT22;10992;48.170;8.596;2023-02-28T06:30:52;-4.70;99.90
21662;DHT22;10992;48.170;8.596;2023-02-28T06:33:19;-4.60;99.90
21662;DHT22;10992;48.170;8.596;2023-02-28T06:35:49;-4.70;99.90
21662;DHT22;10992;48.170;8.596;2023-02-28T06:38:17;-4.60;99.90
21662;DHT22;10992;48.170;8.596;2023-02-28T06:40:45;-4.60;99.90
21662;DHT22;10992;48.170;8.596;2023-02-28T06:43:19;-4.50;99.90
21662;DHT22;10992;48.170;8.596;2023-02-28T06:45:46;-4.50;99.90
21662;DHT22;10992;48.170;8.596;2023-02-28T06:48:12;-4.40;99.90
21662;DHT22;10992;48.170;8.596;2023-02-28T06:50:39;-4.50;99.90
21662;DHT22;10992;48.170;8.596;2023-02-28T06:53:06;-4.50;99.90
21662;DHT22;10992;48.170;8.596;2023-02-28T06:55:33;-4.50;99.90
21662;DHT22;10992;48.170;8.596;2023-02-28T06:58:01;-4.50;99.90
21662;DHT22;10992;48.170;8.596;2023-02-28T07:00:28;-4.50;99.90
21662;DHT22;10992;48.170;8.596;2023-02-28T07:02:55;-4.40;99.90
21662;DHT22;10992;48.170;8.596;2023-02-28T07:05:22;-4.40;99.90
21662;DHT22;10992;48.170;8.596;2023-02-28T07:07:49;-4.40;99.90
21662;DHT22;10992;48.170;8.596;2023-02-28T07:10:16;-4.40;99.90
21662;DHT22;10992;48.170;8.596;2023-02-28T07:12:46;-4.40;99.90
21662;DHT22;10992;48.170;8.596;2023-02-28T07:15:13;-4.30;99.90
21662;DHT22;10992;48.170;8.596;2023-02-28T07:17:40;-4.30;99.90
21662;DHT22;10992;48.170;8.596;2023-02-28T07:20:07;-4.30;99.90
21662;DHT22;10992;48.170;8.596;2023-02-28T07:22:34;-4.20;99.90
21662;DHT22;10992;48.170;8.596;2023-02-28T07:25:02;-4.30;99.90
21662;DHT22;10992;48.170;8.596;2023-02-28T07:27:28;-4.20;99.90
21662;DHT22;10992;48.170;8.596;2023-02-28T07:29:56;-4.20;99.90
21662;DHT22;10992;48.170;8.596;2023-02-28T07:32:23;-4.10;99.90
21662;DHT22;10992;48.170;8.596;2023-02-28T07:34:50;-4.10;99.90
21662;DHT22;10992;48.170;8.596;2023-02-28T07:37:17;-4.10;99.90
21662;DHT22;10992;48.170;8.596;2023-02-28T07:39:44;-4.00;99.90
21662;DHT22;10992;48.170;8.596;2023-02-28T07:42:11;-4.00;99.90
21662;DHT22;10992;48.170;8.596;2023-02-28T07:44:39;-4.00;99.90
21662;DHT22;10992;48.170;8.596;2023-02-28T07:47:08;-3.90;99.90
21662;DHT22;10992;48.170;8.596;2023-02-28T07:49:36;-3.90;99.90
21662;DHT22;10992;48.170;8.596;2023-02-28T07:52:05;-3.80;99.90
21662;DHT22;10992;48.170;8.596;2023-02-28T07:54:32;-3.80;99.90
21662;DHT22;10992;48.170;8.596;2023-02-28T07:56:59;-3.90;99.90
21662;DHT22;10992;48.170;8.596;2023-02-28T07:59:26;-3.80;99.90
21662;DHT22;10992;48.170;8.596;2023-02-28T08:01:53;-3.80;99.90
21662;DHT22;10992;48.170;8.596;2023-02-28T08:04:20;-3.70;99.90
21662;DHT22;10992;48.170;8.596;2023-02-28T08:06:47;-3.70;99.90
21662;DHT22;10992;48.170;8.596;2023-02-28T08:09:14;-3.60;99.90
21662;DHT22;10992;48.170;8.596;2023-02-28T08:11:41;-3.60;99.90
21662;DHT22;10992;48.170;8.596;2023-02-28T08:14:08;-3.60;99.90
21662;DHT22;10992;48.170;8.596;2023-02-28T08:16:35;-3.50;99.90
21662;DHT22;10992;48.170;8.596;2023-02-28T08:19:02;-3.40;99.90
21662;DHT22;10992;48.170;8.596;2023-02-28T08:21:29;-3.40;99.90
21662;DHT22;10992;48.170;8.596;2023-02-28T08:23:57;-3.40;99.90
21662;DHT22;10992;48.170;8.596;2023-02-28T08:26:23;-3.40;99.90
21662;DHT22;10992;48.170;8.596;2023-02-28T08:28:50;-3.40;99.90
21662;DHT22;10992;48.170;8.596;2023-02-28T08:31:18;-3.30;99.90
21662;DHT22;10992;48.170;8.596;2023-02-28T08:33:45;-3.20;99.90
21662;DHT22;10992;48.170;8.596;2023-02-28T08:36:15;-3.20;99.90
21662;DHT22;10992;48.170;8.596;2023-02-28T08:38:42;-3.10;99.90
21662;DHT22;10992;48.170;8.596;2023-02-28T08:41:11;-3.10;99.90
21662;DHT22;10992;48.170;8.596;2023-02-28T08:43:39;-3.10;99.90
21662;DHT22;10992;48.170;8.596;2023-02-28T08:46:06;-3.00;99.90
21662;DHT22;10992;48.170;8.596;2023-02-28T08:48:34;-3.00;99.90
21662;DHT22;10992;48.170;8.596;2023-02-28T08:51:04;-2.90;99.90
21662;DHT22;10992;48.170;8.596;2023-02-28T08:53:37;-2.90;99.90
21662;DHT22;10992;48.170;8.596;2023-02-28T08:56:07;-2.90;99.90
21662;DHT22;10992;48.170;8.596;2023-02-28T08:58:35;-2.80;99.90
21662;DHT22;10992;48.170;8.596;2023-02-28T09:01:10;-2.70;99.90
21662;DHT22;10992;48.170;8.596;2023-02-28T09:03:37;-2.60;99.90
21662;DHT22;10992;48.170;8.596;2023-02-28T09:06:05;-2.50;99.90
21662;DHT22;10992;48.170;8.596;2023-02-28T09:08:32;-2.50;99.90
21662;DHT22;10992;48.170;8.596;2023-02-28T09:10:59;-2.50;99.90
21662;DHT22;10992;48.170;8.596;2023-02-28T09:13:28;-2.40;99.90
21662;DHT22;10992;48.170;8.596;2023-02-28T09:15:58;-2.40;99.90
21662;DHT22;10992;48.170;8.596;2023-02-28T09:18:25;-2.10;99.90
21662;DHT22;10992;48.170;8.596;2023-02-28T09:20:53;-2.10;99.90
21662;DHT22;10992;48.170;8.596;2023-02-28T09:23:20;-2.10;99.90
21662;DHT22;10992;48.170;8.596;2023-02-28T09:25:52;-2.00;99.90
21662;DHT22;10992;48.170;8.596;2023-02-28T09:28:21;-2.00;99.90
21662;DHT22;10992;48.170;8.596;2023-02-28T09:30:50;-2.00;99.90
21662;DHT22;10992;48.170;8.596;2023-02-28T09:33:17;-1.90;99.90
21662;DHT22;10992;48.170;8.596;2023-02-28T09:35:48;-2.00;99.90
21662;DHT22;10992;48.170;8.596;2023-02-28T09:38:16;-1.90;99.90
21662;DHT22;10992;48.170;8.596;2023-02-28T09:40:50;-1.70;99.90
21662;DHT22;10992;48.170;8.596;2023-02-28T09:43:21;-1.60;99.90
21662;DHT22;10992;48.170;8.596;2023-02-28T09:45:56;-1.60;99.90
21662;DHT22;10992;48.170;8.596;2023-02-28T09:48:32;-1.60;99.90
21662;DHT22;10992;48.170;8.596;2023-02-28T09:53:49;-1.60;99.90
21662;DHT22;10992;48.170;8.596;2023-02-28T09:59:01;-1.50;99.90
21662;DHT22;10992;48.170;8.596;2023-02-28T10:01:39;-1.30;99.90
21662;DHT22;10992;48.170;8.596;2023-02-28T10:04:40;-1.30;99.90
21662;DHT22;10992;48.170;8.596;2023-02-28T10:07:19;-1.30;99.90
21662;DHT22;10992;48.170;8.596;2023-02-28T10:09:53;-1.40;99.90
21662;DHT22;10992;48.170;8.596;2023-02-28T10:12:21;-1.50;99.90
21662;DHT22;10992;48.170;8.596;2023-02-28T10:14:51;-1.70;99.90
21662;DHT22;10992;48.170;8.596;2023-02-28T10:17:26;-1.80;99.90
21662;DHT22;10992;48.170;8.596;2023-02-28T10:20:00;-1.70;99.90
21662;DHT22;10992;48.170;8.596;2023-02-28T10:22:38;-1.40;99.90
21662;DHT22;10992;48.170;8.596;2023-02-28T10:25:22;-1.20;99.90
21662;DHT22;10992;48.170;8.596;2023-02-28T10:27:53;-1.20;99.90
21662;DHT22;10992;48.170;8.596;2023-02-28T10:30:21;-1.00;99.90
21662;DHT22;10992;48.170;8.596;2023-02-28T10:32:50;-1.10;99.90
21662;DHT22;10992;48.170;8.596;2023-02-28T10:35:23;-1.40;99.90
21662;DHT22;10992;48.170;8.596;2023-02-28T10:37:57;-1.40;99.90
21662;DHT22;10992;48.170;8.596;2023-02-28T10:40:29;-1.10;99.90
21662;DHT22;10992;48.170;8.596;2023-02-28T10:42:58;-1.40;99.90
21662;DHT22;10992;48.170;8.596;2023-02-28T10:45:28;-1.60;99.90
21662;DHT22;10992;48.170;8.596;2023-02-28T10:50:53;-1.50;99.90
21662;DHT22;10992;48.170;8.596;2023-02-28T10:56:03;-0.60;99.90
21662;DHT22;10992;48.170;8.596;2023-02-28T10:59:02;-0.30;99.90
21662;DHT22;10992;48.170;8.596;2023-02-28T11:03:57;-0.20;99.90
21662;DHT22;10992;48.170;8.596;2023-02-28T11:06:26;-0.50;99.90
21662;DHT22;10992;48.170;8.596;2023-02-28T11:08:57;-0.50;99.90
21662;DHT22;10992;48.170;8.596;2023-02-28T11:11:28;-0.30;99.90
21662;DHT22;10992;48.170;8.596;2023-02-28T11:13:58;-0.60;99.90
21662;DHT22;10992;48.170;8.596;2023-02-28T11:16:37;-0.60;99.90
21662;DHT22;10992;48.170;8.596;2023-02-28T11:19:07;-0.40;99.90
21662;DHT22;10992;48.170;8.596;2023-02-28T11:21:52;-0.20;99.90
21662;DHT22;10992;48.170;8.596;2023-02-28T11:26:51;-0.30;99.90
21662;DHT22;10992;48.170;8.596;2023-02-28T11:29:30;-0.40;99.90
21662;DHT22;10992;48.170;8.596;2023-02-28T11:34:28;0.10;99.90
21662;DHT22;10992;48.170;8.596;2023-02-28T11:36:57;-0.20;99.90
21662;DHT22;10992;48.170;8.596;2023-02-28T11:39:26;0.00;99.90
21662;DHT22;10992;48.170;8.596;2023-02-28T11:42:16;-0.10;99.90
21662;DHT22;10992;48.170;8.596;2023-02-28T11:44:57;-0.10;99.90
21662;DHT22;10992;48.170;8.596;2023-02-28T11:50:16;0.20;99.90
21662;DHT22;10992;48.170;8.596;2023-02-28T11:52:57;0.40;99.90
21662;DHT22;10992;48.170;8.596;2023-02-28T12:00:37;0.40;99.90
21662;DHT22;10992;48.170;8.596;2023-02-28T12:03:20;0.00;99.90
21662;DHT22;10992;48.170;8.596;2023-02-28T12:05:58;0.10;99.90
21662;DHT22;10992;48.170;8.596;2023-02-28T12:11:47;0.30;99.90
21662;DHT22;10992;48.170;8.596;2023-02-28T12:17:20;0.50;99.90
21662;DHT22;10992;48.170;8.596;2023-02-28T12:22:30;0.70;99.90
21662;DHT22;10992;48.170;8.596;2023-02-28T12:27:38;0.50;99.90
21662;DHT22;10992;48.170;8.596;2023-02-28T12:30:25;0.50;99.90
21662;DHT22;10992;48.170;8.596;2023-02-28T12:33:03;0.70;99.90
21662;DHT22;10992;48.170;8.596;2023-02-28T12:35:41;0.90;99.90
21662;DHT22;10992;48.170;8.596;2023-02-28T12:38:17;0.80;99.90
21662;DHT22;10992;48.170;8.596;2023-02-28T12:41:00;0.90;99.90
21662;DHT22;10992;48.170;8.596;2023-02-28T12:43:36;0.70;99.90
21662;DHT22;10992;48.170;8.596;2023-02-28T12:46:10;0.80;99.90
21662;DHT22;10992;48.170;8.596;2023-02-28T12:48:43;0.80;99.90
21662;DHT22;10992;48.170;8.596;2023-02-28T12:51:11;1.00;99.90
21662;DHT22;10992;48.170;8.596;2023-02-28T12:56:30;0.90;99.90
21662;DHT22;10992;48.170;8.596;2023-02-28T13:10:03;0.00;99.90
21662;DHT22;10992;48.170;8.596;2023-02-28T13:12:31;0.00;99.90
21662;DHT22;10992;48.170;8.596;2023-02-28T13:15:18;0.50;99.90
21662;DHT22;10992;48.170;8.596;2023-02-28T13:17:51;0.20;99.90
21662;DHT22;10992;48.170;8.596;2023-02-28T13:20:21;0.30;99.90
21662;DHT22;10992;48.170;8.596;2023-02-28T13:22:50;1.00;99.90
21662;DHT22;10992;48.170;8.596;2023-02-28T13:28:02;2.30;99.90
21662;DHT22;10992;48.170;8.596;2023-02-28T13:38:49;4.30;99.90
21662;DHT22;10992;48.170;8.596;2023-02-28T13:44:04;3.80;99.90
21662;DHT22;10992;48.170;8.596;2023-02-28T13:46:35;2.80;99.90
21662;DHT22;10992;48.170;8.596;2023-02-28T14:05:21;3.70;99.90
21662;DHT22;10992;48.170;8.596;2023-02-28T14:07:54;4.00;99.90
21662;DHT22;10992;48.170;8.596;2023-02-28T14:15:44;3.60;99.90
21662;DHT22;10992;48.170;8.596;2023-02-28T14:18:55;3.10;99.90
21662;DHT22;10992;48.170;8.596;2023-02-28T14:21:16;3.20;99.90
21662;DHT22;10992;48.170;8.596;2023-02-28T14:32:02;4.10;99.90
21662;DHT22;10992;48.170;8.596;2023-02-28T14:34:45;3.90;99.90
21662;DHT22;10992;48.170;8.596;2023-02-28T14:37:19;3.90;99.90
21662;DHT22;10992;48.170;8.596;2023-02-28T14:39:47;3.60;99.90
21662;DHT22;10992;48.170;8.596;2023-02-28T14:42:34;3.30;99.90
21662;DHT22;10992;48.170;8.596;2023-02-28T14:45:02;3.50;99.90
21662;DHT22;10992;48.170;8.596;2023-02-28T14:47:34;3.90;99.90
21662;DHT22;10992;48.170;8.596;2023-02-28T14:50:03;4.00;99.90
21662;DHT22;10992;48.170;8.596;2023-02-28T14:52:32;4.20;99.90
21662;DHT22;10992;48.170;8.596;2023-02-28T14:55:11;4.50;99.90
21662;DHT22;10992;48.170;8.596;2023-02-28T14:57:42;4.60;99.90
21662;DHT22;10992;48.170;8.596;2023-02-28T15:00:28;4.50;99.90
21662;DHT22;10992;48.170;8.596;2023-02-28T15:02:57;4.50;99.90
21662;DHT22;10992;48.170;8.596;2023-02-28T15:05:30;4.70;99.90
21662;DHT22;10992;48.170;8.596;2023-02-28T15:08:12;4.60;99.90
21662;DHT22;10992;48.170;8.596;2023-02-28T15:10:55;3.00;99.90
21662;DHT22;10992;48.170;8.596;2023-02-28T15:13:23;2.60;99.90
21662;DHT22;10992;48.170;8.596;2023-02-28T15:16:04;3.00;99.90
21662;DHT22;10992;48.170;8.596;2023-02-28T15:18:54;3.40;99.90
21662;DHT22;10992;48.170;8.596;2023-02-28T15:21:27;3.60;99.90
21662;DHT22;10992;48.170;8.596;2023-02-28T15:26:31;3.70;99.90
21662;DHT22;10992;48.170;8.596;2023-02-28T15:29:08;3.30;99.90
21662;DHT22;10992;48.170;8.596;2023-02-28T15:31:45;3.20;99.90
21662;DHT22;10992;48.170;8.596;2023-02-28T15:34:41;3.50;99.90
21662;DHT22;10992;48.170;8.596;2023-02-28T15:42:32;3.20;99.90
21662;DHT22;10992;48.170;8.596;2023-02-28T15:44:59;3.10;99.90
21662;DHT22;10992;48.170;8.596;2023-02-28T15:47:28;2.80;99.90
21662;DHT22;10992;48.170;8.596;2023-02-28T15:50:10;2.60;99.90
21662;DHT22;10992;48.170;8.596;2023-02-28T15:52:44;2.70;99.90
21662;DHT22;10992;48.170;8.596;2023-02-28T15:55:23;2.90;99.90
21662;DHT22;10992;48.170;8.596;2023-02-28T15:57:53;2.90;99.90
21662;DHT22;10992;48.170;8.596;2023-02-28T16:00:23;2.80;99.90
21662;DHT22;10992;48.170;8.596;2023-02-28T16:02:51;2.50;99.90
21662;DHT22;10992;48.170;8.596;2023-02-28T16:05:29;2.20;99.90
21662;DHT22;10992;48.170;8.596;2023-02-28T16:08:14;2.20;99.90
21662;DHT22;10992;48.170;8.596;2023-02-28T16:10:41;2.20;99.90
21662;DHT22;10992;48.170;8.596;2023-02-28T16:13:11;2.10;99.90
21662;DHT22;10992;48.170;8.596;2023-02-28T16:15:42;2.00;99.90
21662;DHT22;10992;48.170;8.596;2023-02-28T16:18:13;1.90;99.90
21662;DHT22;10992;48.170;8.596;2023-02-28T16:20:40;1.90;99.90
21662;DHT22;10992;48.170;8.596;2023-02-28T16:23:08;1.80;99.90
21662;DHT22;10992;48.170;8.596;2023-02-28T16:25:43;1.90;99.90
21662;DHT22;10992;48.170;8.596;2023-02-28T16:28:28;1.80;99.90
21662;DHT22;10992;48.170;8.596;2023-02-28T16:31:00;1.90;99.90
21662;DHT22;10992;48.170;8.596;2023-02-28T16:33:31;1.80;99.90
21662;DHT22;10992;48.170;8.596;2023-02-28T16:35:59;1.70;99.90
21662;DHT22;10992;48.170;8.596;2023-02-28T16:38:27;1.60;99.90
21662;DHT22;10992;48.170;8.596;2023-02-28T16:40:57;1.50;99.90
21662;DHT22;10992;48.170;8.596;2023-02-28T16:43:26;1.30;99.90
21662;DHT22;10992;48.170;8.596;2023-02-28T16:45:56;1.10;99.90
21662;DHT22;10992;48.170;8.596;2023-02-28T16:48:27;0.90;99.90
21662;DHT22;10992;48.170;8.596;2023-02-28T16:50:54;0.90;99.90
21662;DHT22;10992;48.170;8.596;2023-02-28T16:53:21;0.80;99.90
21662;DHT22;10992;48.170;8.596;2023-02-28T16:55:51;0.70;99.90
21662;DHT22;10992;48.170;8.596;2023-02-28T16:58:18;0.50;99.90
21662;DHT22;10992;48.170;8.596;2023-02-28T17:00:48;0.50;99.90
21662;DHT22;10992;48.170;8.596;2023-02-28T17:03:27;0.40;99.90
21662;DHT22;10992;48.170;8.596;2023-02-28T17:06:00;0.30;99.90
21662;DHT22;10992;48.170;8.596;2023-02-28T17:08:27;0.30;99.90
21662;DHT22;10992;48.170;8.596;2023-02-28T17:10:56;0.20;99.90
21662;DHT22;10992;48.170;8.596;2023-02-28T17:13:23;0.10;99.90
21662;DHT22;10992;48.170;8.596;2023-02-28T17:15:50;0.10;99.90
21662;DHT22;10992;48.170;8.596;2023-02-28T17:18:18;0.00;99.90
21662;DHT22;10992;48.170;8.596;2023-02-28T17:20:48;-0.10;99.90
21662;DHT22;10992;48.170;8.596;2023-02-28T17:23:15;-0.10;99.90
21662;DHT22;10992;48.170;8.596;2023-02-28T17:25:43;-0.20;99.90
21662;DHT22;10992;48.170;8.596;2023-02-28T17:28:23;-0.20;99.90
21662;DHT22;10992;48.170;8.596;2023-02-28T17:30:50;-0.30;99.90
21662;DHT22;10992;48.170;8.596;2023-02-28T17:33:17;-0.30;99.90
21662;DHT22;10992;48.170;8.596;2023-02-28T17:35:44;-0.30;99.90
21662;DHT22;10992;48.170;8.596;2023-02-28T17:38:20;-0.30;99.90
21662;DHT22;10992;48.170;8.596;2023-02-28T17:40:49;-0.40;99.90
21662;DHT22;10992;48.170;8.596;2023-02-28T17:43:17;-0.40;99.90
21662;DHT22;10992;48.170;8.596;2023-02-28T17:45:44;-0.40;99.90
21662;DHT22;10992;48.170;8.596;2023-02-28T17:48:11;-0.40;99.90
21662;DHT22;10992;48.170;8.596;2023-02-28T17:50:39;-0.40;99.90
21662;DHT22;10992;48.170;8.596;2023-02-28T17:53:05;-0.40;99.90
21662;DHT22;10992;48.170;8.596;2023-02-28T17:55:32;-0.40;99.90
21662;DHT22;10992;48.170;8.596;2023-02-28T17:58:01;-0.50;99.90
21662;DHT22;10992;48.170;8.596;2023-02-28T18:00:30;-0.50;99.90
21662;DHT22;10992;48.170;8.596;2023-02-28T18:03:00;-0.60;99.90
21662;DHT22;10992;48.170;8.596;2023-02-28T18:05:27;-0.60;99.90
21662;DHT22;10992;48.170;8.596;2023-02-28T18:07:54;-0.80;99.90
21662;DHT22;10992;48.170;8.596;2023-02-28T18:10:21;-0.80;99.90